createdAt,value
2022-10-05T00:00:55.490Z,1.17
2022-10-05T00:03:38.797Z,1.10
2022-10-05T00:06:12.782Z,1.30
2022-10-05T00:08:45.737Z,1.37
2022-10-05T00:11:18.649Z,1.50
2022-10-05T00:13:52.679Z,1.80
2022-10-05T00:16:25.504Z,1.70
2022-10-05T00:18:59.735Z,1.80
2022-10-05T00:21:33.253Z,2.23
2022-10-05T00:24:10.406Z,2.03
2022-10-05T00:26:43.352Z,2.27
2022-10-05T00:29:23.721Z,2.27
2022-10-05T00:31:56.720Z,2.50
2022-10-05T00:34:34.043Z,2.70
2022-10-05T00:37:07.106Z,2.60
2022-10-05T00:39:41.076Z,2.73
2022-10-05T00:42:48.752Z,2.87
2022-10-05T00:45:32.204Z,2.70
2022-10-05T00:48:46.110Z,2.87
2022-10-05T00:51:35.970Z,2.40
2022-10-05T00:54:08.601Z,2.30
2022-10-05T00:56:47.806Z,2.83
2022-10-05T00:59:55.319Z,2.17
2022-10-05T01:02:45.845Z,2.10
2022-10-05T01:05:44.705Z,2.17
2022-10-05T01:08:33.382Z,2.60
2022-10-05T01:11:47.157Z,2.17
2022-10-05T01:14:29.132Z,3.23
2022-10-05T01:17:13.383Z,3.70
2022-10-05T01:20:06.869Z,2.20
2022-10-05T01:23:08.721Z,2.30
2022-10-05T01:26:00.258Z,1.80
2022-10-05T01:28:41.142Z,1.77
2022-10-05T01:31:49.448Z,2.10
2022-10-05T01:34:47.326Z,1.80
2022-10-05T01:37:44.918Z,2.17
2022-10-05T01:40:37.629Z,1.80
2022-10-05T01:43:16.304Z,1.40
2022-10-05T01:45:56.062Z,1.70
2022-10-05T01:48:51.909Z,2.00
2022-10-05T01:51:40.367Z,2.00
2022-10-05T01:54:19.023Z,2.17
2022-10-05T01:57:16.779Z,1.97
2022-10-05T02:00:09.133Z,2.17
2022-10-05T02:02:59.376Z,2.33
2022-10-05T02:05:46.699Z,2.30
2022-10-05T02:08:25.645Z,2.33
2022-10-05T02:11:05.251Z,2.43
2022-10-05T02:13:47.061Z,2.47
2022-10-05T02:16:36.219Z,2.63
2022-10-05T02:19:22.250Z,2.63
2022-10-05T02:22:04.773Z,2.53
2022-10-05T02:24:43.451Z,3.00
2022-10-05T02:27:25.096Z,2.93
2022-10-05T02:30:10.430Z,3.37
2022-10-05T02:32:56.354Z,3.23
2022-10-05T02:35:29.246Z,2.80
2022-10-05T02:38:14.484Z,3.07
2022-10-05T02:41:07.758Z,3.03
2022-10-05T02:44:04.690Z,3.27
2022-10-05T02:47:13.308Z,3.10
2022-10-05T02:49:57.231Z,3.23
2022-10-05T02:52:52.807Z,2.67
2022-10-05T02:55:48.781Z,3.00
2022-10-05T02:58:26.928Z,3.43
2022-10-05T03:01:09.877Z,3.47
2022-10-05T03:04:07.655Z,3.30
2022-10-05T03:07:08.726Z,3.90
2022-10-05T03:10:02.570Z,3.60
2022-10-05T03:12:58.886Z,3.23
2022-10-05T03:15:52.715Z,3.33
2022-10-05T03:18:46.843Z,2.97
2022-10-05T03:21:36.226Z,3.63
2022-10-05T03:24:27.288Z,3.47
2022-10-05T03:27:28.093Z,3.27
2022-10-05T03:30:06.267Z,3.10
2022-10-05T03:33:10.256Z,2.77
2022-10-05T03:36:13.782Z,2.47
2022-10-05T03:39:11.285Z,2.73
2022-10-05T03:41:52.886Z,2.70
2022-10-05T03:44:52.179Z,2.63
2022-10-05T03:48:01.302Z,2.87
2022-10-05T03:50:51.102Z,2.33
2022-10-05T03:53:29.820Z,2.73
2022-10-05T03:56:30.368Z,2.90
2022-10-05T03:59:13.334Z,2.70
2022-10-05T04:01:51.812Z,2.70
2022-10-05T04:04:34.690Z,2.90
2022-10-05T04:07:20.423Z,2.67
2022-10-05T04:09:54.580Z,2.70
2022-10-05T04:12:50.498Z,2.70
2022-10-05T04:16:02.503Z,3.03
2022-10-05T04:18:45.847Z,2.77
2022-10-05T04:21:24.530Z,3.00
2022-10-05T04:24:13.446Z,2.87
2022-10-05T04:26:58.775Z,2.73
2022-10-05T04:29:42.903Z,3.07
2022-10-05T04:32:15.617Z,2.83
2022-10-05T04:35:17.267Z,3.23
2022-10-05T04:37:54.067Z,3.63
2022-10-05T04:40:49.273Z,2.97
2022-10-05T04:43:28.374Z,2.97
2022-10-05T04:46:07.015Z,3.10
2022-10-05T04:49:07.727Z,3.53
2022-10-05T04:52:08.264Z,3.60
2022-10-05T04:55:02.885Z,3.03
2022-10-05T04:57:47.801Z,4.07
2022-10-05T05:00:26.709Z,3.33
2022-10-05T05:03:29.414Z,3.20
2022-10-05T05:06:17.335Z,4.53
2022-10-05T05:09:03.182Z,4.07
2022-10-05T05:11:39.843Z,3.73
2022-10-05T05:14:32.140Z,3.57
2022-10-05T05:17:17.794Z,3.43
2022-10-05T05:19:56.598Z,3.30
2022-10-05T05:23:07.115Z,3.40
2022-10-05T05:26:22.191Z,4.80
2022-10-05T05:29:17.328Z,8.23
2022-10-05T05:32:00.882Z,6.00
2022-10-05T05:35:02.131Z,4.23
2022-10-05T05:37:57.164Z,4.00
2022-10-05T05:40:37.317Z,4.33
2022-10-05T05:43:24.542Z,4.30
2022-10-05T05:46:07.422Z,3.70
2022-10-05T05:48:43.045Z,3.50
2022-10-05T05:51:22.870Z,3.77
2022-10-05T05:54:17.752Z,4.23
2022-10-05T05:56:59.511Z,5.00
2022-10-05T05:59:59.086Z,4.87
2022-10-05T06:02:39.133Z,5.27
2022-10-05T06:05:48.123Z,4.97
2022-10-05T06:08:56.077Z,6.10
2022-10-05T06:12:07.654Z,5.53
2022-10-05T06:14:46.858Z,5.90
2022-10-05T06:17:35.038Z,6.30
2022-10-05T06:20:23.796Z,6.53
2022-10-05T06:23:00.727Z,8.37
2022-10-05T06:26:01.670Z,7.53
2022-10-05T06:28:34.932Z,8.00
2022-10-05T06:31:07.755Z,8.03
2022-10-05T06:33:42.926Z,7.83
2022-10-05T06:36:40.616Z,7.20
2022-10-05T06:40:00.924Z,6.77
2022-10-05T06:42:52.535Z,5.07
2022-10-05T06:46:03.594Z,7.37
2022-10-05T06:49:21.727Z,4.23
2022-10-05T06:52:51.148Z,4.50
2022-10-05T06:55:56.213Z,4.07
2022-10-05T06:59:02.033Z,4.10
2022-10-05T07:01:52.963Z,3.67
2022-10-05T07:05:05.009Z,3.23
2022-10-05T07:07:56.305Z,2.87
2022-10-05T07:10:32.624Z,2.97
2022-10-05T07:13:15.606Z,3.47
2022-10-05T07:16:36.398Z,3.83
2022-10-05T07:19:36.764Z,4.87
2022-10-05T07:22:33.518Z,3.83
2022-10-05T07:25:28.670Z,3.30
2022-10-05T07:28:25.587Z,3.30
2022-10-05T07:31:17.016Z,4.10
2022-10-05T07:34:38.271Z,3.87
2022-10-05T07:37:40.231Z,3.40
2022-10-05T07:40:39.271Z,3.73
2022-10-05T07:43:18.353Z,4.13
2022-10-05T07:46:04.994Z,3.87
2022-10-05T07:49:03.039Z,4.23
2022-10-05T07:51:45.466Z,3.77
2022-10-05T07:54:37.496Z,4.33
2022-10-05T07:57:38.278Z,4.70
2022-10-05T08:00:27.289Z,3.77
2022-10-05T08:03:13.863Z,5.33
2022-10-05T08:05:47.406Z,5.90
2022-10-05T08:08:47.070Z,7.07
2022-10-05T08:11:31.070Z,6.43
2022-10-05T08:14:33.777Z,6.93
2022-10-05T08:17:19.181Z,6.47
2022-10-05T08:20:28.607Z,7.38
2022-10-05T08:23:24.260Z,10.43
2022-10-05T08:26:09.000Z,7.47
2022-10-05T08:29:20.172Z,7.13
2022-10-05T08:32:04.824Z,7.50
2022-10-05T08:35:08.744Z,7.47
2022-10-05T08:37:43.083Z,6.70
2022-10-05T08:40:18.889Z,7.13
2022-10-05T08:43:05.189Z,6.93
2022-10-05T08:45:44.003Z,8.65
2022-10-05T08:48:38.406Z,7.67
2022-10-05T08:51:33.061Z,7.07
2022-10-05T08:54:37.349Z,6.20
2022-10-05T08:57:40.213Z,7.93
2022-10-05T09:00:33.165Z,7.40
2022-10-05T09:03:18.011Z,7.00
2022-10-05T09:06:09.273Z,7.27
2022-10-05T09:08:59.479Z,6.57
2022-10-05T09:11:32.628Z,6.83
2022-10-05T09:14:38.833Z,6.33
2022-10-05T09:17:39.247Z,7.40
2022-10-05T09:20:53.357Z,7.07
2022-10-05T09:23:49.032Z,7.00
2022-10-05T09:26:40.456Z,6.97
2022-10-05T09:29:50.391Z,6.47
2022-10-05T09:32:32.309Z,6.77
2022-10-05T09:35:43.096Z,6.47
2022-10-05T09:38:31.682Z,6.73
2022-10-05T09:41:37.541Z,6.80
2022-10-05T09:44:30.728Z,8.70
2022-10-05T09:47:28.135Z,7.10
2022-10-05T09:50:06.801Z,6.33
2022-10-05T09:52:45.726Z,6.43
2022-10-05T09:55:27.671Z,7.88
2022-10-05T09:58:42.743Z,6.47
2022-10-05T10:01:33.670Z,6.80
2022-10-05T10:04:25.543Z,6.33
2022-10-05T10:07:27.193Z,6.67
2022-10-05T10:10:10.313Z,6.20
2022-10-05T10:13:16.820Z,6.77
2022-10-05T10:16:23.379Z,7.60
2022-10-05T10:19:34.926Z,7.33
2022-10-05T10:22:11.148Z,7.90
2022-10-05T10:24:43.797Z,7.50
2022-10-05T10:27:32.179Z,8.43
2022-10-05T10:30:39.796Z,8.63
2022-10-05T10:33:38.727Z,8.87
2022-10-05T10:36:35.102Z,8.27
2022-10-05T10:39:42.212Z,9.13
2022-10-05T10:42:25.324Z,10.55
2022-10-05T10:45:31.702Z,10.27
2022-10-05T10:48:11.104Z,8.83
2022-10-05T10:50:57.044Z,9.30
2022-10-05T10:53:56.010Z,10.32
2022-10-05T10:57:00.203Z,7.40
2022-10-05T10:59:51.217Z,7.60
2022-10-05T11:02:50.583Z,4.40
2022-10-05T11:06:03.864Z,3.80
2022-10-05T11:08:42.555Z,4.37
2022-10-05T11:11:40.267Z,3.73
2022-10-05T11:14:38.503Z,3.97
2022-10-05T11:17:23.166Z,3.47
2022-10-05T11:20:22.983Z,3.78
2022-10-05T11:23:17.938Z,2.60
2022-10-05T11:26:23.175Z,2.90
2022-10-05T11:29:22.874Z,2.65
2022-10-05T11:32:23.671Z,2.47
2022-10-05T11:35:12.282Z,3.78
2022-10-05T11:38:13.543Z,2.35
2022-10-05T11:40:57.287Z,2.35
2022-10-05T11:44:17.338Z,3.65
2022-10-05T11:47:03.763Z,3.95
2022-10-05T11:49:59.131Z,3.05
2022-10-05T11:53:05.434Z,3.33
2022-10-05T11:56:15.846Z,2.55
2022-10-05T11:59:15.304Z,3.13
2022-10-05T12:02:21.219Z,2.80
2022-10-05T12:05:21.846Z,2.58
2022-10-05T12:08:04.135Z,2.75
2022-10-05T12:10:51.819Z,2.17
2022-10-05T12:13:48.377Z,2.28
2022-10-05T12:16:31.965Z,2.30
2022-10-05T12:19:11.026Z,2.05
2022-10-05T12:21:47.022Z,2.08
2022-10-05T12:24:46.015Z,2.03
2022-10-05T12:27:22.444Z,2.00
2022-10-05T12:30:11.211Z,2.08
2022-10-05T12:33:22.287Z,0.70
2022-10-05T12:36:13.378Z,0.70
2022-10-05T12:39:03.515Z,0.80
2022-10-05T12:41:45.255Z,0.90
2022-10-05T12:44:51.028Z,0.90
2022-10-05T12:47:54.127Z,0.80
2022-10-05T12:50:47.073Z,0.85
2022-10-05T12:53:28.834Z,0.70
2022-10-05T12:56:09.335Z,0.55
2022-10-05T12:59:28.855Z,0.80
2022-10-05T13:02:34.410Z,0.80
2022-10-05T13:05:10.264Z,1.00
2022-10-05T13:07:55.055Z,0.90
2022-10-05T13:10:39.335Z,0.82
2022-10-05T13:13:58.982Z,0.82
2022-10-05T13:16:37.455Z,1.10
2022-10-05T13:19:44.523Z,0.95
2022-10-05T13:22:30.809Z,1.20
2022-10-05T13:25:20.289Z,0.93
2022-10-05T13:28:01.879Z,1.30
2022-10-05T13:30:36.702Z,0.70
2022-10-05T13:33:31.504Z,1.02
2022-10-05T13:36:38.303Z,1.10
2022-10-05T13:39:38.737Z,0.90
2022-10-05T13:42:17.193Z,0.85
2022-10-05T13:44:58.726Z,1.08
2022-10-05T13:48:03.252Z,0.90
2022-10-05T13:50:55.184Z,1.20
2022-10-05T13:53:53.465Z,0.80
2022-10-05T13:56:31.734Z,0.93
2022-10-05T13:59:24.697Z,1.08
2022-10-05T14:02:15.351Z,1.30
2022-10-05T14:04:58.371Z,0.90
2022-10-05T14:07:38.223Z,1.10
2022-10-05T14:10:14.542Z,1.10
2022-10-05T14:12:54.373Z,0.90
2022-10-05T14:15:32.367Z,1.02
2022-10-05T14:18:27.319Z,0.93
2022-10-05T14:21:24.601Z,0.80
2022-10-05T14:24:44.879Z,1.00
2022-10-05T14:27:30.029Z,1.00
2022-10-05T14:30:20.140Z,0.90
2022-10-05T14:33:28.548Z,1.00
2022-10-05T14:36:02.386Z,0.90
2022-10-05T14:38:56.990Z,1.13
2022-10-05T14:41:36.211Z,1.00
2022-10-05T14:44:09.262Z,0.88
2022-10-05T14:47:02.782Z,0.93
2022-10-05T14:49:47.007Z,1.00
2022-10-05T14:52:32.659Z,0.85
2022-10-05T14:55:21.166Z,1.20
2022-10-05T14:58:18.022Z,1.05
2022-10-05T15:01:19.924Z,1.00
2022-10-05T15:04:20.442Z,1.00
2022-10-05T15:07:27.015Z,1.10
2022-10-05T15:10:18.974Z,0.90
2022-10-05T15:12:52.712Z,1.10
2022-10-05T15:15:38.804Z,0.90
2022-10-05T15:18:56.816Z,0.90
2022-10-05T15:21:44.963Z,1.02
2022-10-05T15:24:26.322Z,1.05
2022-10-05T15:27:02.651Z,0.95
2022-10-05T15:29:58.677Z,0.85
2022-10-05T15:32:45.701Z,0.90
2022-10-05T15:35:30.020Z,0.88
2022-10-05T15:38:25.735Z,0.90
2022-10-05T15:41:14.747Z,1.05
2022-10-05T15:44:06.639Z,0.80
2022-10-05T15:47:17.816Z,0.80
2022-10-05T15:50:22.936Z,0.93
2022-10-05T15:53:16.582Z,1.10
2022-10-05T15:56:24.615Z,1.27
2022-10-05T15:59:05.362Z,1.00
2022-10-05T16:01:51.680Z,1.00
2022-10-05T16:04:47.005Z,1.00
2022-10-05T16:07:48.031Z,1.17
2022-10-05T16:10:23.947Z,1.30
2022-10-05T16:13:22.248Z,0.98
2022-10-05T16:16:01.786Z,0.90
2022-10-05T16:18:55.230Z,0.90
2022-10-05T16:21:46.797Z,1.10
2022-10-05T16:24:19.599Z,1.02
2022-10-05T16:27:03.374Z,0.90
2022-10-05T16:29:53.179Z,1.13
2022-10-05T16:33:08.421Z,1.20
2022-10-05T16:35:45.734Z,0.90
2022-10-05T16:38:42.315Z,1.10
2022-10-05T16:41:27.974Z,1.20
2022-10-05T16:44:18.697Z,1.20
2022-10-05T16:47:01.246Z,1.10
2022-10-05T16:49:55.855Z,0.90
2022-10-05T16:52:29.828Z,1.00
2022-10-05T16:55:13.904Z,1.10
2022-10-05T16:57:55.689Z,1.10
2022-10-05T17:00:51.528Z,1.13
2022-10-05T17:03:54.011Z,0.95
2022-10-05T17:06:38.904Z,1.40
2022-10-05T17:09:20.569Z,1.02
2022-10-05T17:12:31.151Z,1.10
2022-10-05T17:15:29.165Z,1.15
2022-10-05T17:18:16.981Z,0.90
2022-10-05T17:21:10.628Z,1.08
2022-10-05T17:24:03.994Z,1.15
2022-10-05T17:26:53.779Z,1.30
2022-10-05T17:29:28.095Z,0.90
2022-10-05T17:32:06.983Z,1.13
2022-10-05T17:35:02.382Z,0.90
2022-10-05T17:37:38.912Z,1.13
2022-10-05T17:40:31.774Z,1.27
2022-10-05T17:43:16.418Z,0.90
2022-10-05T17:45:52.713Z,1.73
2022-10-05T17:49:06.719Z,1.27
2022-10-05T17:51:57.959Z,1.05
2022-10-05T17:55:13.406Z,1.05
2022-10-05T17:57:46.169Z,0.98
2022-10-05T18:00:32.635Z,1.20
2022-10-05T18:03:43.854Z,2.35
2022-10-05T18:06:31.935Z,1.40
2022-10-05T18:09:23.243Z,0.90
2022-10-05T18:12:02.480Z,1.08
2022-10-05T18:14:57.063Z,1.08
2022-10-05T18:17:51.183Z,1.08
2022-10-05T18:20:29.821Z,0.93
2022-10-05T18:23:09.740Z,1.10
2022-10-05T18:26:20.186Z,1.38
2022-10-05T18:29:13.780Z,1.20
2022-10-05T18:31:54.415Z,1.05
2022-10-05T18:34:50.127Z,1.10
2022-10-05T18:37:57.107Z,1.50
2022-10-05T18:40:47.755Z,1.30
2022-10-05T18:43:40.740Z,1.70
2022-10-05T18:46:42.292Z,1.57
2022-10-05T18:49:36.601Z,2.10
2022-10-05T18:52:36.388Z,3.00
2022-10-05T18:55:42.316Z,1.77
2022-10-05T18:58:33.236Z,1.88
2022-10-05T19:01:18.140Z,1.83
2022-10-05T19:04:18.671Z,1.60
2022-10-05T19:06:54.394Z,1.48
2022-10-05T19:09:50.739Z,1.73
2022-10-05T19:12:39.278Z,1.53
2022-10-05T19:15:34.953Z,1.50
2022-10-05T19:18:19.628Z,1.70
2022-10-05T19:21:18.074Z,1.70
2022-10-05T19:24:13.779Z,2.15
2022-10-05T19:27:13.943Z,1.57
2022-10-05T19:30:17.904Z,1.80
2022-10-05T19:33:06.026Z,1.70
2022-10-05T19:35:51.355Z,1.87
2022-10-05T19:39:03.404Z,1.50
2022-10-05T19:42:04.846Z,1.40
2022-10-05T19:44:59.795Z,1.43
2022-10-05T19:48:10.169Z,1.60
2022-10-05T19:51:03.408Z,1.47
2022-10-05T19:53:50.013Z,1.50
2022-10-05T19:56:28.650Z,1.73
2022-10-05T19:59:17.154Z,1.60
2022-10-05T20:01:54.254Z,1.47
2022-10-05T20:04:40.406Z,1.40
2022-10-05T20:07:23.181Z,1.53
2022-10-05T20:10:18.496Z,1.50
2022-10-05T20:12:55.691Z,2.00
2022-10-05T20:15:49.998Z,1.50
2022-10-05T20:19:10.950Z,1.70
2022-10-05T20:21:48.114Z,1.57
2022-10-05T20:24:26.368Z,1.60
2022-10-05T20:27:12.644Z,46.03
2022-10-05T20:29:47.934Z,24.50
2022-10-05T20:32:20.699Z,6.27
2022-10-05T20:34:56.432Z,3.70
2022-10-05T20:37:29.211Z,2.50
2022-10-05T20:40:01.974Z,4.87
2022-10-05T20:42:34.801Z,2.60
2022-10-05T20:45:08.035Z,3.30
2022-10-05T20:47:42.024Z,3.30
2022-10-05T20:50:15.218Z,2.60
2022-10-05T20:52:48.102Z,2.47
2022-10-05T20:55:20.867Z,2.00
2022-10-05T20:57:53.586Z,2.10
2022-10-05T21:00:46.926Z,2.10
2022-10-05T21:03:19.731Z,2.00
2022-10-05T21:05:52.398Z,2.13
2022-10-05T21:08:25.386Z,2.03
2022-10-05T21:10:58.326Z,2.00
2022-10-05T21:13:31.038Z,2.40
2022-10-05T21:16:05.383Z,2.30
2022-10-05T21:18:38.786Z,2.07
2022-10-05T21:21:11.428Z,2.10
2022-10-05T21:23:48.146Z,2.40
2022-10-05T21:26:20.820Z,2.00
2022-10-05T21:28:53.649Z,2.23
2022-10-05T21:31:27.520Z,2.10
2022-10-05T21:34:00.224Z,2.17
2022-10-05T21:36:33.025Z,2.00
2022-10-05T21:39:05.775Z,2.20
2022-10-05T21:41:38.454Z,2.03
2022-10-05T21:44:11.185Z,2.33
2022-10-05T21:46:43.983Z,1.53
2022-10-05T21:49:19.655Z,1.83
2022-10-05T21:51:52.732Z,1.80
2022-10-05T21:54:25.819Z,2.07
2022-10-05T21:56:59.951Z,2.03
2022-10-05T21:59:34.348Z,1.77
2022-10-05T22:02:07.173Z,1.90
2022-10-05T22:04:39.924Z,1.90
2022-10-05T22:07:19.035Z,2.00
2022-10-05T22:09:51.981Z,1.70
2022-10-05T22:12:26.351Z,1.93
2022-10-05T22:14:59.419Z,1.70
2022-10-05T22:17:32.215Z,1.90
2022-10-05T22:20:05.307Z,1.97
2022-10-05T22:22:37.970Z,2.07
2022-10-05T22:25:10.712Z,2.03
2022-10-05T22:27:43.507Z,2.00
2022-10-05T22:30:16.630Z,1.93
2022-10-05T22:32:49.517Z,1.93
2022-10-05T22:35:22.308Z,2.10
2022-10-05T22:37:55.195Z,1.73
2022-10-05T22:40:27.896Z,1.90
2022-10-05T22:43:00.645Z,1.90
2022-10-05T22:45:33.421Z,2.20
2022-10-05T22:48:06.256Z,2.20
2022-10-05T22:50:38.973Z,2.00
2022-10-05T22:53:12.638Z,2.00
2022-10-05T22:55:45.334Z,2.10
2022-10-05T22:58:18.349Z,1.80
2022-10-05T23:00:58.575Z,2.03
2022-10-05T23:03:32.524Z,2.10
2022-10-05T23:06:07.519Z,1.83
2022-10-05T23:08:41.592Z,2.10
2022-10-05T23:11:17.053Z,2.20
2022-10-05T23:13:55.668Z,2.10
2022-10-05T23:16:28.891Z,1.93
2022-10-05T23:19:01.858Z,2.33
2022-10-05T23:21:34.558Z,2.27
2022-10-05T23:24:07.897Z,1.60
2022-10-05T23:26:40.609Z,1.30
2022-10-05T23:29:13.692Z,0.83
2022-10-05T23:31:46.444Z,0.60
2022-10-05T23:34:19.308Z,0.80
2022-10-05T23:36:51.997Z,0.70
2022-10-05T23:39:24.733Z,0.50
2022-10-05T23:41:57.446Z,0.50
2022-10-05T23:44:30.249Z,0.60
2022-10-05T23:47:02.925Z,0.63
2022-10-05T23:49:35.678Z,0.50
2022-10-05T23:52:08.348Z,0.23
2022-10-05T23:54:41.191Z,0.53
2022-10-05T23:57:18.367Z,0.30
2022-10-05T23:59:51.246Z,0.33
